Share

Avera, GA

Thomson-McDuffie County (KHQU) Elev 499 ft | 33.53 °N, 82.52 °W | Change Station

Current weather conditions updated 14 minutes ago

Overcast
Overcast
51 °F
Feels Like 51 °F
N
12
Wind Variable Wind from NE
Gusts 16 mph
Sunrise 6:55 AM
Sunset 8:03 PM
Moon Waning Gibbous

Today is forecast to be Warmer than yesterday. Showers ending by midday.

Pressure 30.08 in
Visibility 4.0 miles
Clouds Mostly Cloudy 800 ft
Overcast 1300 ft
Dew Point 51 °F
Humidity 100%
Rainfall 0.00 in
Snow Depth Not available.
UV 0 out of 16
Pollen 3.50 out of 12
Air Quality Not available.
Flu Activity Sporadic
METAR KHQU 191155Z AUTO 04010G14KT 4SM BKN008 OVC013 11/11 A3008 RMK AO1 T01080108 10108 20100

More Conditions Fewer Conditions

Pressure 30.08 in
Visibility 4.0 miles
Clouds Mostly Cloudy 800 ft
Overcast 1300 ft
Dew Point 51 °F
Humidity 100%
Rainfall 0.00 in
Snow Depth Not available.
UV 0 out of 16
Pollen 3.50 out of 12
Air Quality Not available.
Flu Activity Sporadic
METAR KHQU 191155Z AUTO 04010G14KT 4SM BKN008 OVC013 11/11 A3008 RMK AO1 T01080108 10108 20100

More Conditions Fewer Conditions

10-Day Weather Forecast

Almanac

Astronomy

Apr. 19, 2014 Rise Set
Actual Time 6:55 AM EDT 8:03 PM EDT
Civil Twilight 6:29 AM EDT 8:29 PM EDT
Nautical Twilight 5:59 AM EDT 8:59 PM EDT
Astronomical Twilight 5:27 AM EDT 9:31 PM EDT
Moon No Moon Rise 10:19 AM EDT
Length of Visible Light 13h 59m
Length of Day
13h 08m
Tomorrow will be 1m 55s longer.
Waning Gibbous, 80% of the Moon is Illuminated
Today
Waning Gibbous
Apr 22
Last Quarter
Apr 29
New
May 6
First Quarter
May 14
Full

Today's Extremes

State Highs State Lows

Community

  • Bleeding Hearts
    Bleeding Hearts
  • Sunset Silhouettes
    Sunset Silhouettes
  • FL sunset Perico Isle
    FL sunset Perico Isle
  • Cloudy spring view
    Cloudy spring view
  • Old barn
    Old barn

WunderPhotos

Upload Photos

1,702,687 photos uploaded!

Nearby

Snow Depth

Station Depth Elevation
No new snow has been reported.

Coastal Water Temperatures

Place Temperature
No Stations Reporting

Earthquake Activity

City Distance Mag. Time & Date
No recent earthquake activity has been reported nearby.
Minimum magnitude displayed is 2.5.

Nearby Weather Stations

There are no personal weather stations in this area.

What do you think?

We're not finished. Please let us know what you like, what you don't like, and what you are still missing.